sensor_id;sensor_type;location;lat;lon;timestamp;P1;durP1;ratioP1;P2;durP2;ratioP2
57315;SDS011;43156;50.942;18.144;2022-07-06T00:02:28;4.90;;;4.30;;
57315;SDS011;43156;50.942;18.144;2022-07-06T00:05:36;6.00;;;4.20;;
57315;SDS011;43156;50.942;18.144;2022-07-06T00:08:36;5.20;;;4.70;;
57315;SDS011;43156;50.942;18.144;2022-07-06T00:11:35;6.30;;;4.20;;
57315;SDS011;43156;50.942;18.144;2022-07-06T00:14:33;6.70;;;4.00;;
57315;SDS011;43156;50.942;18.144;2022-07-06T00:17:59;5.40;;;4.30;;
57315;SDS011;43156;50.942;18.144;2022-07-06T00:21:15;6.00;;;4.70;;
57315;SDS011;43156;50.942;18.144;2022-07-06T00:24:10;4.30;;;3.90;;
57315;SDS011;43156;50.942;18.144;2022-07-06T00:27:06;4.30;;;3.60;;
57315;SDS011;43156;50.942;18.144;2022-07-06T00:29:59;4.80;;;4.20;;
57315;SDS011;43156;50.942;18.144;2022-07-06T00:33:01;5.40;;;4.10;;
57315;SDS011;43156;50.942;18.144;2022-07-06T00:35:54;4.50;;;4.10;;
57315;SDS011;43156;50.942;18.144;2022-07-06T00:38:49;7.80;;;5.40;;
57315;SDS011;43156;50.942;18.144;2022-07-06T00:41:44;7.00;;;4.60;;
57315;SDS011;43156;50.942;18.144;2022-07-06T00:44:39;7.00;;;4.20;;
57315;SDS011;43156;50.942;18.144;2022-07-06T00:47:37;6.60;;;5.30;;
57315;SDS011;43156;50.942;18.144;2022-07-06T00:50:55;9.80;;;4.60;;
57315;SDS011;43156;50.942;18.144;2022-07-06T00:56:41;9.40;;;5.40;;
57315;SDS011;43156;50.942;18.144;2022-07-06T00:59:42;5.60;;;4.80;;
57315;SDS011;43156;50.942;18.144;2022-07-06T01:02:36;7.00;;;4.10;;
57315;SDS011;43156;50.942;18.144;2022-07-06T01:05:34;5.50;;;3.30;;
57315;SDS011;43156;50.942;18.144;2022-07-06T01:08:36;4.30;;;3.90;;
57315;SDS011;43156;50.942;18.144;2022-07-06T01:11:52;5.00;;;4.30;;
57315;SDS011;43156;50.942;18.144;2022-07-06T01:14:40;5.40;;;3.80;;
57315;SDS011;43156;50.942;18.144;2022-07-06T01:17:38;7.00;;;3.80;;
57315;SDS011;43156;50.942;18.144;2022-07-06T01:20:35;12.10;;;4.50;;
57315;SDS011;43156;50.942;18.144;2022-07-06T01:23:28;21.20;;;4.50;;
57315;SDS011;43156;50.942;18.144;2022-07-06T01:26:34;16.70;;;3.30;;
57315;SDS011;43156;50.942;18.144;2022-07-06T01:29:31;16.90;;;3.90;;
57315;SDS011;43156;50.942;18.144;2022-07-06T01:32:33;16.70;;;4.50;;
57315;SDS011;43156;50.942;18.144;2022-07-06T01:35:53;24.70;;;4.70;;
57315;SDS011;43156;50.942;18.144;2022-07-06T01:38:57;16.60;;;4.90;;
57315;SDS011;43156;50.942;18.144;2022-07-06T01:42:03;17.90;;;5.30;;
57315;SDS011;43156;50.942;18.144;2022-07-06T01:44:40;45.80;;;7.00;;
57315;SDS011;43156;50.942;18.144;2022-07-06T01:47:38;53.20;;;8.70;;
57315;SDS011;43156;50.942;18.144;2022-07-06T01:50:42;36.40;;;8.10;;
57315;SDS011;43156;50.942;18.144;2022-07-06T01:53:33;70.20;;;8.00;;
57315;SDS011;43156;50.942;18.144;2022-07-06T01:56:43;89.40;;;8.40;;
57315;SDS011;43156;50.942;18.144;2022-07-06T01:59:49;37.30;;;6.40;;
57315;SDS011;43156;50.942;18.144;2022-07-06T02:03:08;32.50;;;6.10;;
57315;SDS011;43156;50.942;18.144;2022-07-06T02:06:33;21.10;;;6.10;;
57315;SDS011;43156;50.942;18.144;2022-07-06T02:09:34;34.10;;;6.00;;
57315;SDS011;43156;50.942;18.144;2022-07-06T02:12:48;6.00;;;4.70;;
57315;SDS011;43156;50.942;18.144;2022-07-06T02:16:14;21.60;;;4.60;;
57315;SDS011;43156;50.942;18.144;2022-07-06T02:19:26;21.00;;;6.30;;
57315;SDS011;43156;50.942;18.144;2022-07-06T02:22:47;80.00;;;7.20;;
57315;SDS011;43156;50.942;18.144;2022-07-06T02:25:48;8.50;;;6.40;;
57315;SDS011;43156;50.942;18.144;2022-07-06T02:28:53;28.90;;;7.70;;
57315;SDS011;43156;50.942;18.144;2022-07-06T02:32:00;14.30;;;7.70;;
57315;SDS011;43156;50.942;18.144;2022-07-06T02:34:39;13.30;;;7.50;;
57315;SDS011;43156;50.942;18.144;2022-07-06T02:37:37;27.70;;;8.00;;
57315;SDS011;43156;50.942;18.144;2022-07-06T02:40:41;9.20;;;7.10;;
57315;SDS011;43156;50.942;18.144;2022-07-06T02:43:31;6.90;;;6.10;;
57315;SDS011;43156;50.942;18.144;2022-07-06T02:46:25;6.70;;;5.70;;
57315;SDS011;43156;50.942;18.144;2022-07-06T02:49:26;8.10;;;5.50;;
57315;SDS011;43156;50.942;18.144;2022-07-06T02:52:25;7.10;;;4.80;;
57315;SDS011;43156;50.942;18.144;2022-07-06T02:55:20;7.10;;;5.90;;
57315;SDS011;43156;50.942;18.144;2022-07-06T02:58:24;7.20;;;5.90;;
57315;SDS011;43156;50.942;18.144;2022-07-06T03:01:18;4.60;;;4.20;;
57315;SDS011;43156;50.942;18.144;2022-07-06T03:04:18;5.70;;;4.80;;
57315;SDS011;43156;50.942;18.144;2022-07-06T03:07:32;4.60;;;4.20;;
57315;SDS011;43156;50.942;18.144;2022-07-06T03:10:31;4.40;;;3.80;;
57315;SDS011;43156;50.942;18.144;2022-07-06T03:13:39;4.70;;;4.30;;
57315;SDS011;43156;50.942;18.144;2022-07-06T03:16:40;4.30;;;3.90;;
57315;SDS011;43156;50.942;18.144;2022-07-06T03:19:38;5.20;;;4.20;;
57315;SDS011;43156;50.942;18.144;2022-07-06T03:22:43;9.80;;;4.70;;
57315;SDS011;43156;50.942;18.144;2022-07-06T03:25:36;6.60;;;4.50;;
57315;SDS011;43156;50.942;18.144;2022-07-06T03:31:21;9.40;;;4.70;;
57315;SDS011;43156;50.942;18.144;2022-07-06T03:34:36;5.60;;;3.90;;
57315;SDS011;43156;50.942;18.144;2022-07-06T03:37:33;4.60;;;4.20;;
57315;SDS011;43156;50.942;18.144;2022-07-06T03:40:33;4.60;;;4.20;;
57315;SDS011;43156;50.942;18.144;2022-07-06T03:43:28;9.50;;;3.80;;
57315;SDS011;43156;50.942;18.144;2022-07-06T03:46:57;11.60;;;4.30;;
57315;SDS011;43156;50.942;18.144;2022-07-06T03:50:04;17.30;;;4.40;;
57315;SDS011;43156;50.942;18.144;2022-07-06T03:53:14;12.00;;;3.70;;
57315;SDS011;43156;50.942;18.144;2022-07-06T03:56:16;8.20;;;3.40;;
57315;SDS011;43156;50.942;18.144;2022-07-06T03:59:15;6.70;;;3.50;;
57315;SDS011;43156;50.942;18.144;2022-07-06T04:02:20;3.20;;;2.80;;
57315;SDS011;43156;50.942;18.144;2022-07-06T04:05:17;4.20;;;3.50;;
57315;SDS011;43156;50.942;18.144;2022-07-06T04:08:24;3.90;;;3.30;;
57315;SDS011;43156;50.942;18.144;2022-07-06T04:11:19;4.60;;;3.50;;
57315;SDS011;43156;50.942;18.144;2022-07-06T04:14:40;5.00;;;4.10;;
57315;SDS011;43156;50.942;18.144;2022-07-06T04:17:38;5.30;;;4.20;;
57315;SDS011;43156;50.942;18.144;2022-07-06T04:20:41;5.00;;;4.50;;
57315;SDS011;43156;50.942;18.144;2022-07-06T04:23:31;4.80;;;4.40;;
57315;SDS011;43156;50.942;18.144;2022-07-06T04:26:33;6.60;;;4.90;;
57315;SDS011;43156;50.942;18.144;2022-07-06T04:29:44;6.20;;;5.60;;
57315;SDS011;43156;50.942;18.144;2022-07-06T04:32:42;5.30;;;4.90;;
57315;SDS011;43156;50.942;18.144;2022-07-06T04:35:40;5.00;;;4.60;;
57315;SDS011;43156;50.942;18.144;2022-07-06T04:41:24;4.80;;;4.40;;
57315;SDS011;43156;50.942;18.144;2022-07-06T04:44:22;5.60;;;5.20;;
57315;SDS011;43156;50.942;18.144;2022-07-06T04:47:18;4.80;;;4.40;;
57315;SDS011;43156;50.942;18.144;2022-07-06T04:50:23;4.80;;;4.40;;
57315;SDS011;43156;50.942;18.144;2022-07-06T04:53:30;5.00;;;4.70;;
57315;SDS011;43156;50.942;18.144;2022-07-06T04:56:25;5.90;;;5.40;;
57315;SDS011;43156;50.942;18.144;2022-07-06T04:59:35;5.50;;;5.10;;
57315;SDS011;43156;50.942;18.144;2022-07-06T05:02:34;5.40;;;5.00;;
57315;SDS011;43156;50.942;18.144;2022-07-06T05:05:46;5.70;;;5.30;;
57315;SDS011;43156;50.942;18.144;2022-07-06T05:09:07;6.40;;;5.80;;
57315;SDS011;43156;50.942;18.144;2022-07-06T05:12:21;7.10;;;6.60;;
57315;SDS011;43156;50.942;18.144;2022-07-06T05:15:15;7.70;;;7.10;;
57315;SDS011;43156;50.942;18.144;2022-07-06T05:18:06;7.80;;;7.10;;
57315;SDS011;43156;50.942;18.144;2022-07-06T05:21:04;8.30;;;7.60;;
57315;SDS011;43156;50.942;18.144;2022-07-06T05:24:16;8.00;;;7.30;;
57315;SDS011;43156;50.942;18.144;2022-07-06T05:27:05;8.20;;;7.20;;
57315;SDS011;43156;50.942;18.144;2022-07-06T05:30:00;7.70;;;7.00;;
57315;SDS011;43156;50.942;18.144;2022-07-06T05:32:56;7.70;;;6.80;;
57315;SDS011;43156;50.942;18.144;2022-07-06T05:35:45;7.80;;;7.20;;
57315;SDS011;43156;50.942;18.144;2022-07-06T05:38:32;8.10;;;7.30;;
57315;SDS011;43156;50.942;18.144;2022-07-06T05:41:25;7.90;;;7.20;;
57315;SDS011;43156;50.942;18.144;2022-07-06T05:44:48;8.50;;;7.40;;
57315;SDS011;43156;50.942;18.144;2022-07-06T05:47:47;8.60;;;7.80;;
57315;SDS011;43156;50.942;18.144;2022-07-06T05:50:59;9.40;;;7.90;;
57315;SDS011;43156;50.942;18.144;2022-07-06T05:53:58;9.80;;;8.80;;
57315;SDS011;43156;50.942;18.144;2022-07-06T05:56:50;11.00;;;9.10;;
57315;SDS011;43156;50.942;18.144;2022-07-06T05:59:50;10.50;;;9.50;;
57315;SDS011;43156;50.942;18.144;2022-07-06T06:03:05;10.40;;;9.40;;
57315;SDS011;43156;50.942;18.144;2022-07-06T06:06:01;9.40;;;8.40;;
57315;SDS011;43156;50.942;18.144;2022-07-06T06:09:05;7.90;;;7.10;;
57315;SDS011;43156;50.942;18.144;2022-07-06T06:12:01;10.10;;;7.00;;
57315;SDS011;43156;50.942;18.144;2022-07-06T06:14:58;6.80;;;6.00;;
57315;SDS011;43156;50.942;18.144;2022-07-06T06:18:08;6.80;;;6.10;;
57315;SDS011;43156;50.942;18.144;2022-07-06T06:21:26;5.50;;;4.90;;
57315;SDS011;43156;50.942;18.144;2022-07-06T06:24:31;5.00;;;4.00;;
57315;SDS011;43156;50.942;18.144;2022-07-06T06:28:01;4.80;;;3.30;;
57315;SDS011;43156;50.942;18.144;2022-07-06T06:31:12;8.00;;;3.20;;
57315;SDS011;43156;50.942;18.144;2022-07-06T06:34:04;4.20;;;2.90;;
57315;SDS011;43156;50.942;18.144;2022-07-06T06:37:12;3.40;;;2.70;;
57315;SDS011;43156;50.942;18.144;2022-07-06T06:40:05;3.00;;;2.10;;
57315;SDS011;43156;50.942;18.144;2022-07-06T06:42:51;3.80;;;2.10;;
57315;SDS011;43156;50.942;18.144;2022-07-06T06:45:42;3.50;;;2.00;;
57315;SDS011;43156;50.942;18.144;2022-07-06T06:48:28;2.90;;;1.90;;
57315;SDS011;43156;50.942;18.144;2022-07-06T06:51:30;2.30;;;1.70;;
57315;SDS011;43156;50.942;18.144;2022-07-06T06:54:16;2.90;;;1.90;;
57315;SDS011;43156;50.942;18.144;2022-07-06T06:57:09;2.90;;;1.80;;
57315;SDS011;43156;50.942;18.144;2022-07-06T06:59:56;2.60;;;1.80;;
57315;SDS011;43156;50.942;18.144;2022-07-06T07:02:50;2.20;;;1.90;;
57315;SDS011;43156;50.942;18.144;2022-07-06T07:05:46;3.20;;;1.90;;
57315;SDS011;43156;50.942;18.144;2022-07-06T07:08:41;3.20;;;1.80;;
57315;SDS011;43156;50.942;18.144;2022-07-06T07:11:42;2.60;;;2.00;;
57315;SDS011;43156;50.942;18.144;2022-07-06T07:14:38;3.20;;;1.70;;
57315;SDS011;43156;50.942;18.144;2022-07-06T07:17:27;2.10;;;1.70;;
57315;SDS011;43156;50.942;18.144;2022-07-06T07:20:21;3.30;;;2.00;;
57315;SDS011;43156;50.942;18.144;2022-07-06T07:23:20;3.90;;;1.80;;
57315;SDS011;43156;50.942;18.144;2022-07-06T07:26:21;3.10;;;1.90;;
57315;SDS011;43156;50.942;18.144;2022-07-06T07:29:12;4.50;;;2.90;;
57315;SDS011;43156;50.942;18.144;2022-07-06T07:32:13;5.00;;;3.70;;
57315;SDS011;43156;50.942;18.144;2022-07-06T07:35:10;4.30;;;2.90;;
57315;SDS011;43156;50.942;18.144;2022-07-06T07:38:00;3.50;;;3.00;;
57315;SDS011;43156;50.942;18.144;2022-07-06T07:40:55;3.90;;;3.40;;
57315;SDS011;43156;50.942;18.144;2022-07-06T07:43:46;4.40;;;3.40;;
57315;SDS011;43156;50.942;18.144;2022-07-06T07:46:44;4.10;;;3.50;;
57315;SDS011;43156;50.942;18.144;2022-07-06T07:49:48;3.80;;;3.50;;
57315;SDS011;43156;50.942;18.144;2022-07-06T07:52:47;4.40;;;4.00;;
57315;SDS011;43156;50.942;18.144;2022-07-06T07:55:35;5.00;;;4.30;;
57315;SDS011;43156;50.942;18.144;2022-07-06T07:58:33;5.10;;;4.50;;
57315;SDS011;43156;50.942;18.144;2022-07-06T08:01:32;6.30;;;4.70;;
57315;SDS011;43156;50.942;18.144;2022-07-06T08:04:34;5.10;;;4.30;;
57315;SDS011;43156;50.942;18.144;2022-07-06T08:07:21;5.50;;;4.40;;
57315;SDS011;43156;50.942;18.144;2022-07-06T08:10:11;5.20;;;4.50;;
57315;SDS011;43156;50.942;18.144;2022-07-06T08:13:01;5.20;;;4.70;;
57315;SDS011;43156;50.942;18.144;2022-07-06T08:15:57;4.60;;;4.20;;
57315;SDS011;43156;50.942;18.144;2022-07-06T08:21:38;5.30;;;4.80;;
57315;SDS011;43156;50.942;18.144;2022-07-06T08:24:28;5.80;;;5.20;;
57315;SDS011;43156;50.942;18.144;2022-07-06T08:27:38;6.70;;;5.30;;
57315;SDS011;43156;50.942;18.144;2022-07-06T08:30:39;5.60;;;5.00;;
57315;SDS011;43156;50.942;18.144;2022-07-06T08:33:32;5.70;;;5.00;;
57315;SDS011;43156;50.942;18.144;2022-07-06T08:36:28;6.20;;;5.00;;
57315;SDS011;43156;50.942;18.144;2022-07-06T08:39:26;5.70;;;5.10;;
57315;SDS011;43156;50.942;18.144;2022-07-06T08:42:17;6.40;;;5.60;;
57315;SDS011;43156;50.942;18.144;2022-07-06T08:45:12;5.10;;;4.70;;
57315;SDS011;43156;50.942;18.144;2022-07-06T08:47:59;4.90;;;4.60;;
57315;SDS011;43156;50.942;18.144;2022-07-06T08:50:53;5.70;;;5.20;;
57315;SDS011;43156;50.942;18.144;2022-07-06T08:53:45;5.80;;;5.30;;
57315;SDS011;43156;50.942;18.144;2022-07-06T08:56:44;4.80;;;4.40;;
57315;SDS011;43156;50.942;18.144;2022-07-06T08:59:41;5.30;;;4.80;;
57315;SDS011;43156;50.942;18.144;2022-07-06T09:02:48;5.80;;;5.40;;
57315;SDS011;43156;50.942;18.144;2022-07-06T09:05:51;5.60;;;5.10;;
57315;SDS011;43156;50.942;18.144;2022-07-06T09:08:58;5.80;;;5.20;;
57315;SDS011;43156;50.942;18.144;2022-07-06T09:12:28;5.50;;;4.90;;
57315;SDS011;43156;50.942;18.144;2022-07-06T09:15:34;3.50;;;3.20;;
57315;SDS011;43156;50.942;18.144;2022-07-06T09:18:39;3.30;;;3.00;;
57315;SDS011;43156;50.942;18.144;2022-07-06T09:21:30;2.60;;;2.40;;
57315;SDS011;43156;50.942;18.144;2022-07-06T09:24:51;2.60;;;2.20;;
57315;SDS011;43156;50.942;18.144;2022-07-06T09:28:11;2.40;;;2.00;;
57315;SDS011;43156;50.942;18.144;2022-07-06T09:31:39;2.30;;;2.10;;
57315;SDS011;43156;50.942;18.144;2022-07-06T09:34:45;2.50;;;1.70;;
57315;SDS011;43156;50.942;18.144;2022-07-06T09:37:35;2.90;;;2.00;;
57315;SDS011;43156;50.942;18.144;2022-07-06T09:40:20;2.30;;;1.80;;
57315;SDS011;43156;50.942;18.144;2022-07-06T09:43:22;2.60;;;1.50;;
57315;SDS011;43156;50.942;18.144;2022-07-06T09:46:11;2.10;;;1.20;;
57315;SDS011;43156;50.942;18.144;2022-07-06T09:48:59;2.40;;;1.70;;
57315;SDS011;43156;50.942;18.144;2022-07-06T09:52:10;1.50;;;1.30;;
57315;SDS011;43156;50.942;18.144;2022-07-06T09:54:57;1.60;;;1.50;;
57315;SDS011;43156;50.942;18.144;2022-07-06T09:57:52;1.40;;;1.30;;
57315;SDS011;43156;50.942;18.144;2022-07-06T10:00:46;1.50;;;1.30;;
57315;SDS011;43156;50.942;18.144;2022-07-06T10:03:32;2.00;;;1.80;;
57315;SDS011;43156;50.942;18.144;2022-07-06T10:06:47;2.10;;;1.50;;
57315;SDS011;43156;50.942;18.144;2022-07-06T10:09:41;2.50;;;1.40;;
57315;SDS011;43156;50.942;18.144;2022-07-06T10:12:40;1.50;;;1.40;;
57315;SDS011;43156;50.942;18.144;2022-07-06T10:15:50;2.10;;;1.50;;
57315;SDS011;43156;50.942;18.144;2022-07-06T10:18:39;1.80;;;1.50;;
57315;SDS011;43156;50.942;18.144;2022-07-06T10:21:40;2.50;;;1.50;;
57315;SDS011;43156;50.942;18.144;2022-07-06T10:24:33;2.90;;;1.60;;
57315;SDS011;43156;50.942;18.144;2022-07-06T10:27:23;2.50;;;1.70;;
57315;SDS011;43156;50.942;18.144;2022-07-06T10:30:12;2.60;;;1.80;;
57315;SDS011;43156;50.942;18.144;2022-07-06T10:33:18;2.40;;;1.70;;
57315;SDS011;43156;50.942;18.144;2022-07-06T10:36:15;2.90;;;2.10;;
57315;SDS011;43156;50.942;18.144;2022-07-06T10:39:37;2.70;;;2.20;;
57315;SDS011;43156;50.942;18.144;2022-07-06T10:42:56;3.30;;;2.80;;
57315;SDS011;43156;50.942;18.144;2022-07-06T10:45:51;2.90;;;2.60;;
57315;SDS011;43156;50.942;18.144;2022-07-06T10:48:41;3.10;;;2.80;;
57315;SDS011;43156;50.942;18.144;2022-07-06T10:51:40;4.30;;;2.70;;
57315;SDS011;43156;50.942;18.144;2022-07-06T10:54:31;4.80;;;3.10;;
57315;SDS011;43156;50.942;18.144;2022-07-06T10:57:50;3.00;;;2.80;;
57315;SDS011;43156;50.942;18.144;2022-07-06T11:03:37;4.40;;;2.60;;
57315;SDS011;43156;50.942;18.144;2022-07-06T11:06:26;3.50;;;3.10;;
57315;SDS011;43156;50.942;18.144;2022-07-06T11:09:17;2.50;;;2.30;;
57315;SDS011;43156;50.942;18.144;2022-07-06T11:12:17;2.70;;;2.50;;
57315;SDS011;43156;50.942;18.144;2022-07-06T11:15:12;5.90;;;2.90;;
57315;SDS011;43156;50.942;18.144;2022-07-06T11:18:20;3.00;;;2.70;;
57315;SDS011;43156;50.942;18.144;2022-07-06T11:24:06;5.20;;;2.70;;
57315;SDS011;43156;50.942;18.144;2022-07-06T11:26:55;3.80;;;2.50;;
57315;SDS011;43156;50.942;18.144;2022-07-06T11:29:48;2.80;;;2.50;;
57315;SDS011;43156;50.942;18.144;2022-07-06T11:32:36;2.80;;;2.20;;
57315;SDS011;43156;50.942;18.144;2022-07-06T11:35:28;3.60;;;2.20;;
57315;SDS011;43156;50.942;18.144;2022-07-06T11:38:25;2.30;;;1.90;;
57315;SDS011;43156;50.942;18.144;2022-07-06T11:41:10;3.30;;;2.20;;
57315;SDS011;43156;50.942;18.144;2022-07-06T11:43:57;3.40;;;2.20;;
57315;SDS011;43156;50.942;18.144;2022-07-06T11:46:47;1.80;;;1.70;;
57315;SDS011;43156;50.942;18.144;2022-07-06T11:49:43;3.10;;;1.80;;
57315;SDS011;43156;50.942;18.144;2022-07-06T11:52:38;3.40;;;1.70;;
57315;SDS011;43156;50.942;18.144;2022-07-06T11:55:32;2.80;;;2.00;;
57315;SDS011;43156;50.942;18.144;2022-07-06T11:58:29;2.30;;;1.80;;
57315;SDS011;43156;50.942;18.144;2022-07-06T12:01:28;2.90;;;1.70;;
57315;SDS011;43156;50.942;18.144;2022-07-06T12:04:16;2.00;;;1.70;;
57315;SDS011;43156;50.942;18.144;2022-07-06T12:07:06;3.00;;;1.70;;
57315;SDS011;43156;50.942;18.144;2022-07-06T12:10:00;2.60;;;1.60;;
57315;SDS011;43156;50.942;18.144;2022-07-06T12:13:02;2.40;;;1.70;;
57315;SDS011;43156;50.942;18.144;2022-07-06T12:16:10;2.20;;;1.70;;
57315;SDS011;43156;50.942;18.144;2022-07-06T12:21:59;2.40;;;1.50;;
57315;SDS011;43156;50.942;18.144;2022-07-06T12:24:46;2.20;;;1.60;;
57315;SDS011;43156;50.942;18.144;2022-07-06T12:27:37;2.30;;;1.20;;
57315;SDS011;43156;50.942;18.144;2022-07-06T12:30:33;2.10;;;1.20;;
57315;SDS011;43156;50.942;18.144;2022-07-06T12:33:25;2.50;;;1.60;;
57315;SDS011;43156;50.942;18.144;2022-07-06T12:36:12;2.10;;;1.20;;
57315;SDS011;43156;50.942;18.144;2022-07-06T12:38:59;1.60;;;1.10;;
57315;SDS011;43156;50.942;18.144;2022-07-06T12:42:01;1.60;;;1.20;;
57315;SDS011;43156;50.942;18.144;2022-07-06T12:44:45;2.30;;;1.30;;
57315;SDS011;43156;50.942;18.144;2022-07-06T12:50:48;3.00;;;1.60;;
57315;SDS011;43156;50.942;18.144;2022-07-06T12:53:34;4.10;;;2.30;;
57315;SDS011;43156;50.942;18.144;2022-07-06T12:56:21;5.30;;;2.50;;
57315;SDS011;43156;50.942;18.144;2022-07-06T12:59:07;4.80;;;2.20;;
57315;SDS011;43156;50.942;18.144;2022-07-06T13:01:57;4.60;;;2.20;;
57315;SDS011;43156;50.942;18.144;2022-07-06T13:04:53;3.50;;;2.20;;
57315;SDS011;43156;50.942;18.144;2022-07-06T13:07:55;4.50;;;2.20;;
57315;SDS011;43156;50.942;18.144;2022-07-06T13:10:44;4.10;;;2.10;;
57315;SDS011;43156;50.942;18.144;2022-07-06T13:13:42;3.90;;;2.50;;
57315;SDS011;43156;50.942;18.144;2022-07-06T13:16:35;3.00;;;2.10;;
57315;SDS011;43156;50.942;18.144;2022-07-06T13:19:38;4.30;;;2.40;;
57315;SDS011;43156;50.942;18.144;2022-07-06T13:22:26;3.90;;;2.10;;
57315;SDS011;43156;50.942;18.144;2022-07-06T13:25:27;4.30;;;2.10;;
57315;SDS011;43156;50.942;18.144;2022-07-06T13:28:15;3.20;;;1.90;;
57315;SDS011;43156;50.942;18.144;2022-07-06T13:31:15;3.30;;;1.50;;
57315;SDS011;43156;50.942;18.144;2022-07-06T13:34:15;3.30;;;1.60;;
57315;SDS011;43156;50.942;18.144;2022-07-06T13:37:16;3.00;;;1.60;;
57315;SDS011;43156;50.942;18.144;2022-07-06T13:40:28;3.30;;;1.70;;
57315;SDS011;43156;50.942;18.144;2022-07-06T13:43:16;2.80;;;1.60;;
57315;SDS011;43156;50.942;18.144;2022-07-06T13:46:24;2.70;;;2.10;;
57315;SDS011;43156;50.942;18.144;2022-07-06T13:49:16;4.90;;;2.00;;
57315;SDS011;43156;50.942;18.144;2022-07-06T13:52:25;2.30;;;1.60;;
57315;SDS011;43156;50.942;18.144;2022-07-06T13:55:23;1.50;;;1.40;;
57315;SDS011;43156;50.942;18.144;2022-07-06T13:58:18;2.40;;;1.50;;
57315;SDS011;43156;50.942;18.144;2022-07-06T14:01:08;2.80;;;1.20;;
57315;SDS011;43156;50.942;18.144;2022-07-06T14:04:08;1.60;;;0.90;;
57315;SDS011;43156;50.942;18.144;2022-07-06T14:07:03;4.30;;;1.20;;
57315;SDS011;43156;50.942;18.144;2022-07-06T14:09:44;1.90;;;0.80;;
57315;SDS011;43156;50.942;18.144;2022-07-06T14:12:52;2.30;;;1.00;;
57315;SDS011;43156;50.942;18.144;2022-07-06T14:15:45;2.20;;;0.90;;
57315;SDS011;43156;50.942;18.144;2022-07-06T14:18:32;1.50;;;0.80;;
57315;SDS011;43156;50.942;18.144;2022-07-06T14:21:23;1.30;;;0.80;;
57315;SDS011;43156;50.942;18.144;2022-07-06T14:24:12;2.10;;;0.70;;
57315;SDS011;43156;50.942;18.144;2022-07-06T14:27:05;3.20;;;0.80;;
57315;SDS011;43156;50.942;18.144;2022-07-06T14:29:53;1.00;;;0.80;;
57315;SDS011;43156;50.942;18.144;2022-07-06T14:32:46;1.80;;;0.70;;
57315;SDS011;43156;50.942;18.144;2022-07-06T14:36:08;4.40;;;1.00;;
57315;SDS011;43156;50.942;18.144;2022-07-06T14:39:12;2.30;;;0.90;;
57315;SDS011;43156;50.942;18.144;2022-07-06T14:42:10;2.00;;;1.00;;
57315;SDS011;43156;50.942;18.144;2022-07-06T14:45:12;0.60;;;0.60;;
57315;SDS011;43156;50.942;18.144;2022-07-06T14:48:07;2.00;;;0.80;;
57315;SDS011;43156;50.942;18.144;2022-07-06T14:51:03;2.80;;;0.90;;
57315;SDS011;43156;50.942;18.144;2022-07-06T14:53:54;2.50;;;0.90;;
57315;SDS011;43156;50.942;18.144;2022-07-06T14:56:56;1.40;;;0.70;;
57315;SDS011;43156;50.942;18.144;2022-07-06T14:59:45;2.60;;;0.90;;
57315;SDS011;43156;50.942;18.144;2022-07-06T15:02:35;3.20;;;0.90;;
57315;SDS011;43156;50.942;18.144;2022-07-06T15:05:24;2.80;;;0.90;;
57315;SDS011;43156;50.942;18.144;2022-07-06T15:08:14;1.60;;;0.90;;
57315;SDS011;43156;50.942;18.144;2022-07-06T15:11:11;1.70;;;0.90;;
57315;SDS011;43156;50.942;18.144;2022-07-06T15:13:56;2.60;;;0.70;;
57315;SDS011;43156;50.942;18.144;2022-07-06T15:16:51;1.10;;;0.70;;
57315;SDS011;43156;50.942;18.144;2022-07-06T15:19:43;1.80;;;0.80;;
57315;SDS011;43156;50.942;18.144;2022-07-06T15:22:33;3.10;;;1.10;;
57315;SDS011;43156;50.942;18.144;2022-07-06T15:25:22;2.00;;;0.80;;
57315;SDS011;43156;50.942;18.144;2022-07-06T15:28:12;2.60;;;0.90;;
57315;SDS011;43156;50.942;18.144;2022-07-06T15:31:25;2.30;;;0.90;;
57315;SDS011;43156;50.942;18.144;2022-07-06T15:34:39;1.80;;;0.90;;
57315;SDS011;43156;50.942;18.144;2022-07-06T15:37:41;2.40;;;1.00;;
57315;SDS011;43156;50.942;18.144;2022-07-06T15:40:58;1.60;;;1.10;;
57315;SDS011;43156;50.942;18.144;2022-07-06T15:43:56;2.30;;;1.10;;
57315;SDS011;43156;50.942;18.144;2022-07-06T15:46:54;1.50;;;0.80;;
57315;SDS011;43156;50.942;18.144;2022-07-06T15:49:48;2.30;;;1.30;;
57315;SDS011;43156;50.942;18.144;2022-07-06T15:52:34;1.80;;;0.90;;
57315;SDS011;43156;50.942;18.144;2022-07-06T15:55:27;2.90;;;1.40;;
57315;SDS011;43156;50.942;18.144;2022-07-06T15:58:17;3.30;;;1.10;;
57315;SDS011;43156;50.942;18.144;2022-07-06T16:04:05;1.30;;;0.90;;
57315;SDS011;43156;50.942;18.144;2022-07-06T16:07:00;2.80;;;1.10;;
57315;SDS011;43156;50.942;18.144;2022-07-06T16:09:58;2.40;;;0.90;;
57315;SDS011;43156;50.942;18.144;2022-07-06T16:12:54;2.80;;;0.90;;
57315;SDS011;43156;50.942;18.144;2022-07-06T16:16:15;2.40;;;1.40;;
57315;SDS011;43156;50.942;18.144;2022-07-06T16:19:27;2.20;;;1.00;;
57315;SDS011;43156;50.942;18.144;2022-07-06T16:26:00;4.90;;;1.10;;
57315;SDS011;43156;50.942;18.144;2022-07-06T16:28:51;4.70;;;2.20;;
57315;SDS011;43156;50.942;18.144;2022-07-06T16:31:39;1.60;;;1.20;;
57315;SDS011;43156;50.942;18.144;2022-07-06T16:34:47;2.90;;;1.60;;
57315;SDS011;43156;50.942;18.144;2022-07-06T16:37:33;1.60;;;1.30;;
57315;SDS011;43156;50.942;18.144;2022-07-06T16:40:18;23.20;;;19.70;;
57315;SDS011;43156;50.942;18.144;2022-07-06T16:43:16;10.00;;;8.80;;
57315;SDS011;43156;50.942;18.144;2022-07-06T16:46:05;8.30;;;4.90;;
57315;SDS011;43156;50.942;18.144;2022-07-06T16:49:08;25.20;;;14.50;;
57315;SDS011;43156;50.942;18.144;2022-07-06T16:54:52;2.90;;;2.20;;
57315;SDS011;43156;50.942;18.144;2022-07-06T16:57:48;3.90;;;3.50;;
57315;SDS011;43156;50.942;18.144;2022-07-06T17:00:43;4.70;;;3.80;;
57315;SDS011;43156;50.942;18.144;2022-07-06T17:03:28;12.10;;;8.90;;
57315;SDS011;43156;50.942;18.144;2022-07-06T17:06:18;8.00;;;7.20;;
57315;SDS011;43156;50.942;18.144;2022-07-06T17:09:08;5.50;;;3.20;;
57315;SDS011;43156;50.942;18.144;2022-07-06T17:11:55;5.80;;;2.80;;
57315;SDS011;43156;50.942;18.144;2022-07-06T17:14:41;3.30;;;2.50;;
57315;SDS011;43156;50.942;18.144;2022-07-06T17:17:32;3.30;;;1.60;;
57315;SDS011;43156;50.942;18.144;2022-07-06T17:20:22;3.90;;;2.60;;
57315;SDS011;43156;50.942;18.144;2022-07-06T17:23:08;5.50;;;3.50;;
57315;SDS011;43156;50.942;18.144;2022-07-06T17:25:58;4.30;;;2.30;;
57315;SDS011;43156;50.942;18.144;2022-07-06T17:29:10;2.80;;;0.90;;
57315;SDS011;43156;50.942;18.144;2022-07-06T17:32:00;3.90;;;1.30;;
57315;SDS011;43156;50.942;18.144;2022-07-06T17:34:49;2.00;;;1.20;;
57315;SDS011;43156;50.942;18.144;2022-07-06T17:37:35;2.30;;;1.10;;
57315;SDS011;43156;50.942;18.144;2022-07-06T17:40:30;2.70;;;1.00;;
57315;SDS011;43156;50.942;18.144;2022-07-06T17:43:16;3.40;;;1.10;;
57315;SDS011;43156;50.942;18.144;2022-07-06T17:46:10;1.80;;;1.00;;
57315;SDS011;43156;50.942;18.144;2022-07-06T17:49:20;1.90;;;1.10;;
57315;SDS011;43156;50.942;18.144;2022-07-06T17:52:15;3.60;;;1.10;;
57315;SDS011;43156;50.942;18.144;2022-07-06T17:55:12;3.60;;;1.20;;
57315;SDS011;43156;50.942;18.144;2022-07-06T17:57:58;3.20;;;1.10;;
57315;SDS011;43156;50.942;18.144;2022-07-06T18:00:47;2.80;;;1.20;;
57315;SDS011;43156;50.942;18.144;2022-07-06T18:03:58;2.00;;;1.20;;
57315;SDS011;43156;50.942;18.144;2022-07-06T18:06:47;3.20;;;1.30;;
57315;SDS011;43156;50.942;18.144;2022-07-06T18:09:43;2.80;;;1.20;;